createdAt,value
2022-07-25T00:01:07.796Z,100.00
2022-07-25T00:04:19.133Z,100.00
2022-07-25T00:07:27.500Z,100.00
2022-07-25T00:10:37.582Z,100.00
2022-07-25T00:13:46.134Z,100.00
2022-07-25T00:16:54.693Z,100.00
2022-07-25T00:20:03.676Z,100.00
2022-07-25T00:23:12.160Z,100.00
2022-07-25T00:26:22.001Z,100.00
2022-07-25T00:29:30.654Z,100.00
2022-07-25T00:32:38.959Z,100.00
2022-07-25T00:35:47.270Z,100.00
2022-07-25T00:38:55.693Z,100.00
2022-07-25T00:42:06.458Z,100.00
2022-07-25T00:45:14.738Z,100.00
2022-07-25T00:48:23.329Z,100.00
2022-07-25T00:51:32.671Z,100.00
2022-07-25T00:54:41.602Z,100.00
2022-07-25T00:57:51.993Z,100.00
2022-07-25T01:01:01.863Z,100.00
2022-07-25T01:04:10.294Z,100.00
2022-07-25T01:07:19.414Z,100.00
2022-07-25T01:10:27.785Z,100.00
2022-07-25T01:13:37.669Z,100.00
2022-07-25T01:16:45.976Z,100.00
2022-07-25T01:19:54.233Z,100.00
2022-07-25T01:23:04.091Z,100.00
2022-07-25T01:26:12.304Z,100.00
2022-07-25T01:29:20.766Z,100.00
2022-07-25T01:32:29.245Z,100.00
2022-07-25T01:35:43.251Z,100.00
2022-07-25T01:38:54.008Z,100.00
2022-07-25T01:42:03.256Z,100.00
2022-07-25T01:45:13.561Z,100.00
2022-07-25T01:48:21.950Z,100.00
2022-07-25T01:51:30.207Z,100.00
2022-07-25T01:54:41.102Z,100.00
2022-07-25T01:57:51.894Z,100.00
2022-07-25T02:01:00.519Z,100.00
2022-07-25T02:04:09.415Z,100.00
2022-07-25T02:07:18.174Z,100.00
2022-07-25T02:10:28.376Z,100.00
2022-07-25T02:13:37.419Z,100.00
2022-07-25T02:16:45.942Z,100.00
2022-07-25T02:19:54.501Z,100.00
2022-07-25T02:23:03.230Z,100.00
2022-07-25T02:26:16.548Z,100.00
2022-07-25T02:29:24.997Z,100.00
2022-07-25T02:32:35.245Z,100.00
2022-07-25T02:35:43.435Z,100.00
2022-07-25T02:38:54.852Z,100.00
2022-07-25T02:42:04.796Z,100.00
2022-07-25T02:45:13.973Z,100.00
2022-07-25T02:48:22.248Z,100.00
2022-07-25T02:51:30.698Z,100.00
2022-07-25T02:54:39.119Z,100.00
2022-07-25T02:57:49.096Z,100.00
2022-07-25T03:00:57.574Z,100.00
2022-07-25T03:04:09.684Z,100.00
2022-07-25T03:07:18.458Z,100.00
2022-07-25T03:10:27.144Z,100.00
2022-07-25T03:13:36.722Z,100.00
2022-07-25T03:16:45.147Z,100.00
2022-07-25T03:19:53.702Z,100.00
2022-07-25T03:23:02.208Z,100.00
2022-07-25T03:26:10.843Z,100.00
2022-07-25T03:29:20.575Z,100.00
2022-07-25T03:32:30.565Z,100.00
2022-07-25T03:35:39.379Z,100.00
2022-07-25T03:38:48.103Z,100.00
2022-07-25T03:41:57.022Z,100.00
2022-07-25T03:45:09.325Z,100.00
2022-07-25T03:48:17.746Z,100.00
2022-07-25T03:51:26.046Z,100.00
2022-07-25T03:54:34.853Z,100.00
2022-07-25T03:57:43.240Z,100.00
2022-07-25T04:00:52.833Z,100.00
2022-07-25T04:04:02.223Z,100.00
2022-07-25T04:07:10.417Z,100.00
2022-07-25T04:10:24.522Z,100.00
2022-07-25T04:13:40.013Z,100.00
2022-07-25T04:16:49.722Z,100.00
2022-07-25T04:19:58.176Z,100.00
2022-07-25T04:23:06.304Z,100.00
2022-07-25T04:26:14.896Z,100.00
2022-07-25T04:29:23.071Z,100.00
2022-07-25T04:32:32.911Z,100.00
2022-07-25T04:35:41.772Z,100.00
2022-07-25T04:38:50.258Z,100.00
2022-07-25T04:41:58.693Z,100.00
2022-07-25T04:45:08.662Z,100.00
2022-07-25T04:48:19.374Z,100.00
2022-07-25T04:51:27.927Z,100.00
2022-07-25T04:54:36.474Z,100.00
2022-07-25T04:57:44.879Z,100.00
2022-07-25T05:00:53.425Z,100.00
2022-07-25T05:04:03.798Z,100.00
2022-07-25T05:07:12.953Z,100.00
2022-07-25T05:10:21.191Z,100.00
2022-07-25T05:13:29.469Z,100.00
2022-07-25T05:16:37.721Z,100.00
2022-07-25T05:19:48.082Z,100.00
2022-07-25T05:22:56.494Z,100.00
2022-07-25T05:26:04.783Z,100.00
2022-07-25T05:29:12.979Z,100.00
2022-07-25T05:32:21.235Z,100.00
2022-07-25T05:35:32.324Z,100.00
2022-07-25T05:38:40.939Z,100.00
2022-07-25T05:41:49.338Z,100.00
2022-07-25T05:44:57.598Z,100.00
2022-07-25T05:48:06.697Z,100.00
2022-07-25T05:51:16.683Z,100.00
2022-07-25T05:54:24.834Z,99.38
2022-07-25T05:57:37.071Z,98.77
2022-07-25T06:00:45.528Z,97.34
2022-07-25T06:03:53.716Z,96.10
2022-07-25T06:07:03.795Z,95.35
2022-07-25T06:10:12.290Z,94.17
2022-07-25T06:13:21.070Z,90.64
2022-07-25T06:16:32.013Z,84.21
2022-07-25T06:19:40.482Z,72.61
2022-07-25T06:22:50.319Z,64.08
2022-07-25T06:25:58.694Z,58.58
2022-07-25T06:29:07.194Z,55.63
2022-07-25T06:32:15.650Z,53.25
2022-07-25T06:35:24.163Z,52.07
2022-07-25T06:38:33.992Z,50.94
2022-07-25T06:41:42.699Z,49.14
2022-07-25T06:44:51.231Z,48.11
2022-07-25T06:48:08.581Z,48.29
2022-07-25T06:51:17.286Z,47.04
2022-07-25T06:54:27.041Z,49.93
2022-07-25T06:57:35.701Z,48.24
2022-07-25T07:00:44.222Z,48.01
2022-07-25T07:03:52.466Z,46.99
2022-07-25T07:07:01.583Z,49.23
2022-07-25T07:10:11.849Z,48.95
2022-07-25T07:13:24.146Z,46.51
2022-07-25T07:16:33.427Z,44.36
2022-07-25T07:19:44.539Z,45.43
2022-07-25T07:22:53.249Z,45.11
2022-07-25T07:26:03.415Z,44.75
2022-07-25T07:29:12.011Z,45.06
2022-07-25T07:32:20.420Z,44.61
2022-07-25T07:35:29.235Z,45.80
2022-07-25T07:38:46.953Z,45.91
2022-07-25T07:41:56.758Z,45.30
2022-07-25T07:45:12.163Z,46.30
2022-07-25T07:48:21.124Z,45.06
2022-07-25T07:51:29.590Z,44.74
2022-07-25T07:54:59.294Z,44.27
2022-07-25T07:58:10.048Z,46.87
2022-07-25T08:01:18.307Z,45.36
2022-07-25T08:04:26.823Z,45.49
2022-07-25T08:07:35.307Z,47.06
2022-07-25T08:10:46.819Z,47.17
2022-07-25T08:13:56.629Z,46.84
2022-07-25T08:17:04.967Z,48.74
2022-07-25T08:20:36.905Z,47.64
2022-07-25T08:23:45.034Z,45.62
2022-07-25T08:26:53.279Z,44.16
2022-07-25T08:30:03.228Z,44.49
2022-07-25T08:33:13.865Z,45.52
2022-07-25T08:36:22.441Z,45.51
2022-07-25T08:39:30.968Z,47.63
2022-07-25T08:42:39.524Z,45.29
2022-07-25T08:45:52.213Z,45.23
2022-07-25T08:49:00.729Z,44.85
2022-07-25T08:52:10.333Z,45.93
2022-07-25T08:55:21.812Z,48.54
2022-07-25T08:58:30.172Z,48.59
2022-07-25T09:01:41.817Z,47.68
2022-07-25T09:04:51.014Z,47.18
2022-07-25T09:08:09.983Z,49.55
2022-07-25T09:11:32.115Z,49.68
2022-07-25T09:14:44.331Z,49.07
2022-07-25T09:17:58.207Z,48.49
2022-07-25T09:21:15.156Z,48.00
2022-07-25T09:24:23.550Z,46.45
2022-07-25T09:27:35.699Z,46.90
2022-07-25T09:30:56.568Z,46.13
2022-07-25T09:34:09.891Z,46.58
2022-07-25T09:37:26.376Z,45.92
2022-07-25T09:40:35.245Z,46.35
2022-07-25T09:43:45.451Z,44.77
2022-07-25T09:46:53.908Z,45.59
2022-07-25T09:50:04.159Z,43.22
2022-07-25T09:53:13.369Z,42.70
2022-07-25T09:56:21.562Z,41.85
2022-07-25T09:59:29.946Z,43.10
2022-07-25T10:02:51.079Z,42.11
2022-07-25T10:06:20.362Z,41.23
2022-07-25T10:09:28.797Z,40.79
2022-07-25T10:12:38.281Z,43.53
2022-07-25T10:15:50.483Z,42.45
2022-07-25T10:19:00.378Z,41.77
2022-07-25T10:22:10.387Z,40.19
2022-07-25T10:25:21.534Z,43.15
2022-07-25T10:28:41.508Z,41.98
2022-07-25T10:31:51.600Z,41.92
2022-07-25T10:35:00.587Z,42.27
2022-07-25T10:38:10.446Z,41.22
2022-07-25T10:41:18.785Z,41.46
2022-07-25T10:44:41.120Z,41.40
2022-07-25T10:47:56.311Z,42.27
2022-07-25T10:51:10.334Z,41.00
2022-07-25T10:54:22.794Z,42.44
2022-07-25T10:57:32.166Z,41.63
2022-07-25T11:00:46.196Z,40.59
2022-07-25T11:03:58.560Z,40.83
2022-07-25T11:07:11.519Z,42.47
2022-07-25T11:10:27.798Z,41.94
2022-07-25T11:13:39.505Z,41.24
2022-07-25T11:16:50.998Z,40.09
2022-07-25T11:20:03.248Z,39.75
2022-07-25T11:23:11.722Z,39.71
2022-07-25T11:26:21.839Z,40.55
2022-07-25T11:29:30.379Z,39.38
2022-07-25T11:32:55.694Z,36.36
2022-07-25T11:36:08.544Z,36.62
2022-07-25T11:39:18.989Z,39.15
2022-07-25T11:42:43.088Z,36.28
2022-07-25T11:46:01.129Z,36.43
2022-07-25T11:49:10.160Z,37.25
2022-07-25T11:52:24.899Z,36.05
2022-07-25T11:55:36.494Z,35.91
2022-07-25T11:58:59.033Z,35.08
2022-07-25T12:02:07.339Z,36.27
2022-07-25T12:05:18.976Z,37.08
2022-07-25T12:08:27.438Z,36.34
2022-07-25T12:11:36.035Z,35.61
2022-07-25T12:14:46.138Z,36.76
2022-07-25T12:17:56.803Z,35.10
2022-07-25T12:21:06.441Z,35.51
2022-07-25T12:24:15.265Z,35.61
2022-07-25T12:27:24.094Z,35.27
2022-07-25T12:30:34.334Z,34.58
2022-07-25T12:33:43.059Z,35.29
2022-07-25T12:36:53.046Z,35.79
2022-07-25T12:40:02.347Z,35.38
2022-07-25T12:43:13.333Z,36.21
2022-07-25T12:46:23.040Z,35.90
2022-07-25T12:49:31.492Z,35.11
2022-07-25T12:52:39.660Z,36.13
2022-07-25T12:55:48.209Z,36.09
2022-07-25T12:58:56.312Z,35.98
2022-07-25T13:02:06.798Z,36.10
2022-07-25T13:05:15.186Z,36.24
2022-07-25T13:08:23.602Z,35.33
2022-07-25T13:11:32.546Z,35.93
2022-07-25T13:14:41.205Z,36.17
2022-07-25T13:17:51.385Z,36.27
2022-07-25T13:21:00.682Z,35.31
2022-07-25T13:24:09.702Z,35.73
2022-07-25T13:27:20.880Z,36.55
2022-07-25T13:30:29.057Z,35.70
2022-07-25T13:33:39.056Z,35.95
2022-07-25T13:36:49.311Z,35.71
2022-07-25T13:39:58.395Z,35.41
2022-07-25T13:43:06.574Z,35.09
2022-07-25T13:46:15.161Z,34.24
2022-07-25T13:49:25.407Z,34.57
2022-07-25T13:52:33.662Z,36.02
2022-07-25T13:55:41.982Z,35.26
2022-07-25T13:58:50.192Z,34.14
2022-07-25T14:01:58.444Z,34.84
2022-07-25T14:05:09.598Z,34.30
2022-07-25T14:08:18.332Z,33.56
2022-07-25T14:11:30.544Z,33.37
2022-07-25T14:14:39.257Z,33.87
2022-07-25T14:17:47.965Z,33.71
2022-07-25T14:20:57.658Z,33.95
2022-07-25T14:24:06.599Z,33.38
2022-07-25T14:27:15.028Z,34.95
2022-07-25T14:30:23.452Z,35.25
2022-07-25T14:33:31.884Z,35.32
2022-07-25T14:36:41.455Z,35.97
2022-07-25T14:39:49.701Z,35.64
2022-07-25T14:42:58.392Z,34.81
2022-07-25T14:46:32.576Z,35.63
2022-07-25T14:49:57.129Z,35.07
2022-07-25T14:53:11.982Z,35.42
2022-07-25T14:56:20.627Z,34.81
2022-07-25T14:59:29.200Z,35.16
2022-07-25T15:02:37.340Z,34.82
2022-07-25T15:05:45.808Z,34.85
2022-07-25T15:08:56.038Z,35.49
2022-07-25T15:12:04.861Z,35.74
2022-07-25T15:15:14.017Z,36.50
2022-07-25T15:18:22.431Z,35.90
2022-07-25T15:21:30.965Z,35.55
2022-07-25T15:25:14.063Z,35.30
2022-07-25T15:28:09.177Z,36.37
2022-07-25T15:31:17.517Z,35.16
2022-07-25T15:34:26.073Z,35.34
2022-07-25T15:37:34.268Z,35.55
2022-07-25T15:40:45.347Z,35.97
2022-07-25T15:43:53.894Z,36.35
2022-07-25T15:47:02.369Z,35.24
2022-07-25T15:50:11.504Z,35.60
2022-07-25T15:53:20.163Z,35.18
2022-07-25T15:56:30.199Z,35.70
2022-07-25T15:59:38.569Z,34.41
2022-07-25T16:02:46.964Z,35.05
2022-07-25T16:05:57.159Z,35.17
2022-07-25T16:09:06.496Z,34.77
2022-07-25T16:12:16.534Z,34.53
2022-07-25T16:15:26.357Z,32.86
2022-07-25T16:18:34.771Z,33.40
2022-07-25T16:21:43.301Z,33.82
2022-07-25T16:24:51.737Z,34.04
2022-07-25T16:28:01.672Z,34.12
2022-07-25T16:31:12.378Z,33.83
2022-07-25T16:34:21.411Z,33.36
2022-07-25T16:37:31.842Z,33.43
2022-07-25T16:40:40.320Z,32.70
2022-07-25T16:43:49.877Z,32.68
2022-07-25T16:46:58.406Z,34.02
2022-07-25T16:50:08.008Z,33.73
2022-07-25T16:53:16.453Z,32.66
2022-07-25T16:56:24.653Z,30.94
2022-07-25T16:59:34.457Z,29.14
2022-07-25T17:02:43.937Z,28.27
2022-07-25T17:05:53.951Z,28.24
2022-07-25T17:09:02.618Z,27.38
2022-07-25T17:12:10.971Z,27.42
2022-07-25T17:15:22.037Z,27.57
2022-07-25T17:18:30.641Z,28.87
2022-07-25T17:21:39.000Z,31.19
2022-07-25T17:24:47.535Z,32.43
2022-07-25T17:27:56.124Z,33.45
2022-07-25T17:31:06.045Z,34.59
2022-07-25T17:34:14.250Z,35.19
2022-07-25T17:37:22.807Z,36.36
2022-07-25T17:40:31.414Z,37.21
2022-07-25T17:43:40.638Z,37.35
2022-07-25T17:46:50.459Z,38.66
2022-07-25T17:49:58.962Z,38.86
2022-07-25T17:53:07.561Z,39.20
2022-07-25T17:56:15.718Z,39.79
2022-07-25T17:59:23.857Z,40.18
2022-07-25T18:02:33.565Z,40.60
2022-07-25T18:05:41.838Z,41.45
2022-07-25T18:08:50.653Z,40.91
2022-07-25T18:12:00.225Z,40.98
2022-07-25T18:15:12.170Z,41.43
2022-07-25T18:18:21.852Z,41.69
2022-07-25T18:21:30.369Z,41.85
2022-07-25T18:24:38.570Z,42.31
2022-07-25T18:27:48.513Z,43.65
2022-07-25T18:30:57.010Z,45.08
2022-07-25T18:34:07.115Z,44.75
2022-07-25T18:37:16.232Z,45.91
2022-07-25T18:40:24.825Z,44.33
2022-07-25T18:43:33.104Z,45.21
2022-07-25T18:46:45.606Z,42.88
2022-07-25T18:49:55.475Z,45.41
2022-07-25T18:53:05.022Z,46.21
2022-07-25T18:56:13.931Z,46.89
2022-07-25T18:59:24.037Z,47.34
2022-07-25T19:02:34.001Z,47.76
2022-07-25T19:05:44.416Z,48.64
2022-07-25T19:08:53.744Z,49.07
2022-07-25T19:12:02.168Z,50.69
2022-07-25T19:15:11.235Z,50.21
2022-07-25T19:18:19.537Z,53.23
2022-07-25T19:21:29.459Z,51.99
2022-07-25T19:24:37.690Z,51.84
2022-07-25T19:27:46.397Z,53.08
2022-07-25T19:30:54.847Z,56.13
2022-07-25T19:34:03.583Z,53.08
2022-07-25T19:37:15.745Z,57.12
2022-07-25T19:40:24.645Z,55.27
2022-07-25T19:43:33.256Z,57.34
2022-07-25T19:46:41.745Z,54.83
2022-07-25T19:49:50.221Z,55.58
2022-07-25T19:53:00.262Z,53.86
2022-07-25T19:56:11.078Z,53.50
2022-07-25T19:59:21.093Z,55.76
2022-07-25T20:02:29.607Z,54.94
2022-07-25T20:05:38.220Z,56.40
2022-07-25T20:08:48.427Z,56.10
2022-07-25T20:11:57.696Z,57.92
2022-07-25T20:15:07.903Z,58.75
2022-07-25T20:18:19.446Z,59.43
2022-07-25T20:21:28.785Z,59.32
2022-07-25T20:24:38.927Z,58.08
2022-07-25T20:27:49.742Z,56.83
2022-07-25T20:30:59.485Z,58.57
2022-07-25T20:34:08.352Z,61.51
2022-07-25T20:37:16.776Z,61.52
2022-07-25T20:40:26.646Z,69.75
2022-07-25T20:43:35.835Z,81.45
2022-07-25T20:46:44.388Z,96.61
2022-07-25T20:49:53.029Z,100.00
2022-07-25T20:53:01.555Z,100.00
2022-07-25T20:56:12.041Z,100.00
2022-07-25T20:59:20.613Z,100.00
2022-07-25T21:02:29.094Z,100.00
2022-07-25T21:05:39.608Z,100.00
2022-07-25T21:08:48.302Z,100.00
2022-07-25T21:11:57.929Z,100.00
2022-07-25T21:15:08.520Z,100.00
2022-07-25T21:18:17.041Z,100.00
2022-07-25T21:21:26.221Z,100.00
2022-07-25T21:24:34.706Z,100.00
2022-07-25T21:27:44.534Z,100.00
2022-07-25T21:30:55.165Z,100.00
2022-07-25T21:34:03.943Z,100.00
2022-07-25T21:37:15.200Z,100.00
2022-07-25T21:40:25.612Z,100.00
2022-07-25T21:43:35.732Z,100.00
2022-07-25T21:46:44.201Z,100.00
2022-07-25T21:50:10.246Z,100.00
2022-07-25T21:53:22.206Z,100.00
2022-07-25T21:56:30.840Z,100.00
2022-07-25T21:59:40.853Z,100.00
2022-07-25T22:02:49.659Z,100.00
2022-07-25T22:05:58.022Z,100.00
2022-07-25T22:09:07.833Z,100.00
2022-07-25T22:12:16.714Z,100.00
2022-07-25T22:15:26.620Z,100.00
2022-07-25T22:18:34.983Z,100.00
2022-07-25T22:21:43.781Z,100.00
2022-07-25T22:24:52.406Z,100.00
2022-07-25T22:28:01.086Z,100.00
2022-07-25T22:31:11.133Z,100.00
2022-07-25T22:34:19.943Z,100.00
2022-07-25T22:37:32.671Z,100.00
2022-07-25T22:40:41.442Z,100.00
2022-07-25T22:43:58.394Z,100.00
2022-07-25T22:47:09.752Z,100.00
2022-07-25T22:50:18.240Z,100.00
2022-07-25T22:53:26.841Z,100.00
2022-07-25T22:56:35.401Z,100.00
2022-07-25T22:59:43.930Z,100.00
2022-07-25T23:02:55.392Z,100.00
2022-07-25T23:06:04.472Z,100.00
2022-07-25T23:09:14.579Z,100.00
2022-07-25T23:12:22.937Z,100.00
2022-07-25T23:15:49.952Z,100.00
2022-07-25T23:19:01.130Z,100.00
2022-07-25T23:22:10.754Z,100.00
2022-07-25T23:25:19.227Z,100.00
2022-07-25T23:28:27.738Z,100.00
2022-07-25T23:31:36.255Z,100.00
2022-07-25T23:34:46.306Z,100.00
2022-07-25T23:37:54.701Z,100.00
2022-07-25T23:41:03.157Z,100.00
2022-07-25T23:44:18.654Z,100.00
2022-07-25T23:47:39.611Z,100.00
2022-07-25T23:50:50.728Z,100.00
2022-07-25T23:53:59.550Z,100.00
2022-07-25T23:57:08.986Z,100.00
